Currently 48°F in Pinon Hills, California, USA
48°F
48°F / 48°F
5 mph NW
0.00"
Wednesday, January 22, 2020 12:08 AM PST

Pinon Hills, California Climate Summary
Typical August Day

Normal High:    91.4°F (33.0°C)
Normal Low:    66.1°F (18.9°C)
Average:    78.6°F (25.9°C)

Hour    Temperature    Wind Speed    Humidity
12:00 AM    72°F (22°C)    2 mph    32%
1:00 AM    71°F (21°C)    2 mph    33%
2:00 AM    70°F (21°C)    2 mph    33%
3:00 AM    69°F (21°C)    2 mph    34%
4:00 AM    69°F (21°C)    2 mph    33%
5:00 AM    68°F (20°C)    2 mph    34%
6:00 AM    68°F (20°C)    2 mph    34%
7:00 AM    70°F (21°C)    1 mph    32%
8:00 AM    77°F (25°C)    1 mph    26%
9:00 AM    80°F (27°C)    1 mph    23%
10:00 AM    82°F (28°C)    2 mph    21%
11:00 AM    85°F (29°C)    2 mph    19%
12:00 PM    87°F (31°C)    2 mph    17%
1:00 PM    88°F (31°C)    3 mph    16%
2:00 PM    89°F (32°C)    3 mph    15%
3:00 PM    90°F (32°C)    3 mph    15%
4:00 PM    90°F (32°C)    4 mph    15%
5:00 PM    88°F (31°C)    4 mph    17%
6:00 PM    87°F (30°C)    5 mph    19%
7:00 PM    84°F (29°C)    5 mph    21%
8:00 PM    79°F (26°C)    3 mph    25%
9:00 PM    77°F (25°C)    3 mph    28%
10:00 PM    74°F (23°C)    2 mph    30%
11:00 PM    72°F (22°C)    2 mph    32%
 

The Pinon Hills, California weather pages are a service of WeatherCurrents.
Copyright ©2020  WeatherCurrents. All rights reserved. - Submit questions and comments - Privacy Policy